createdAt,value
2023-04-10T00:02:22.970Z,102202.97
2023-04-10T00:05:08.470Z,102203.00
2023-04-10T00:07:53.698Z,102200.38
2023-04-10T00:10:39.820Z,102189.16
2023-04-10T00:13:24.826Z,102197.78
2023-04-10T00:16:10.829Z,102203.91
2023-04-10T00:18:56.227Z,102206.56
2023-04-10T00:21:41.464Z,102203.13
2023-04-10T00:24:26.876Z,102206.66
2023-04-10T00:27:12.161Z,102204.13
2023-04-10T00:29:57.616Z,102196.25
2023-04-10T00:32:43.725Z,102204.94
2023-04-10T00:35:28.992Z,102199.81
2023-04-10T00:38:14.454Z,102202.50
2023-04-10T00:40:59.820Z,102196.41
2023-04-10T00:43:45.262Z,102196.44
2023-04-10T00:46:31.119Z,102189.50
2023-04-10T00:49:18.328Z,102188.69
2023-04-10T00:52:03.716Z,102180.91
2023-04-10T00:54:49.058Z,102183.59
2023-04-10T00:57:34.588Z,102186.19
2023-04-10T01:00:20.954Z,102175.81
2023-04-10T01:03:06.010Z,102178.41
2023-04-10T01:06:01.983Z,102182.81
2023-04-10T01:08:47.524Z,102182.94
2023-04-10T01:11:39.491Z,102176.03
2023-04-10T01:14:35.957Z,102180.38
2023-04-10T01:17:36.551Z,102183.91
2023-04-10T01:20:23.092Z,102176.94
2023-04-10T01:23:25.361Z,102176.09
2023-04-10T01:26:11.262Z,102181.41
2023-04-10T01:29:01.220Z,102185.75
2023-04-10T01:31:53.385Z,102184.91
2023-04-10T01:34:46.401Z,102188.38
2023-04-10T01:37:33.414Z,102184.06
2023-04-10T01:40:20.005Z,102195.38
2023-04-10T01:43:08.041Z,102196.25
2023-04-10T01:45:53.429Z,102179.75
2023-04-10T01:48:38.816Z,102189.34
2023-04-10T01:51:23.961Z,102182.44
2023-04-10T01:54:09.365Z,102183.34
2023-04-10T01:56:54.897Z,102189.44
2023-04-10T01:59:40.169Z,102179.00
2023-04-10T02:02:25.808Z,102177.16
2023-04-10T02:05:11.094Z,102178.09
2023-04-10T02:07:59.649Z,102169.47
2023-04-10T02:10:48.441Z,102167.75
2023-04-10T02:13:35.548Z,102165.22
2023-04-10T02:16:22.280Z,102168.66
2023-04-10T02:19:09.659Z,102163.47
2023-04-10T02:21:56.719Z,102159.13
2023-04-10T02:24:42.527Z,102153.03
2023-04-10T02:27:31.066Z,102155.63
2023-04-10T02:30:16.572Z,102153.09
2023-04-10T02:33:01.969Z,102145.22
2023-04-10T02:35:46.987Z,102151.31
2023-04-10T02:38:32.405Z,102146.97
2023-04-10T02:41:17.759Z,102141.78
2023-04-10T02:44:03.211Z,102143.53
2023-04-10T02:46:48.544Z,102135.72
2023-04-10T02:49:36.829Z,102136.59
2023-04-10T02:52:22.114Z,102142.72
2023-04-10T02:55:07.792Z,102132.28
2023-04-10T02:57:53.028Z,102131.47
2023-04-10T03:00:38.283Z,102130.59
2023-04-10T03:03:24.068Z,102131.47
2023-04-10T03:06:10.486Z,102129.69
2023-04-10T03:08:56.167Z,102127.13
2023-04-10T03:11:41.279Z,102123.69
2023-04-10T03:14:27.098Z,102116.72
2023-04-10T03:17:13.401Z,102120.19
2023-04-10T03:19:58.556Z,102116.78
2023-04-10T03:22:43.648Z,102109.84
2023-04-10T03:25:28.933Z,102105.53
2023-04-10T03:28:14.308Z,102089.06
2023-04-10T03:30:59.772Z,102092.53
2023-04-10T03:33:45.015Z,102096.84
2023-04-10T03:36:30.605Z,102087.31
2023-04-10T03:39:15.784Z,102083.00
2023-04-10T03:42:01.480Z,102083.00
2023-04-10T03:44:47.084Z,102076.06
2023-04-10T03:47:32.588Z,102084.75
2023-04-10T03:50:18.095Z,102076.97
2023-04-10T03:53:03.484Z,102077.81
2023-04-10T03:55:48.745Z,102085.66
2023-04-10T03:58:33.990Z,102083.09
2023-04-10T04:01:19.355Z,102075.28
2023-04-10T04:04:05.294Z,102076.97
2023-04-10T04:06:50.570Z,102079.59
2023-04-10T04:09:35.835Z,102083.94
2023-04-10T04:12:21.212Z,102074.41
2023-04-10T04:15:06.862Z,102076.19
2023-04-10T04:17:52.054Z,102080.50
2023-04-10T04:20:37.433Z,102070.09
2023-04-10T04:23:22.696Z,102071.84
2023-04-10T04:26:08.192Z,102075.31
2023-04-10T04:28:53.513Z,102058.84
2023-04-10T04:31:38.787Z,102073.53
2023-04-10T04:34:23.925Z,102071.84
2023-04-10T04:37:09.301Z,102066.63
2023-04-10T04:39:54.815Z,102072.66
2023-04-10T04:42:39.971Z,102078.72
2023-04-10T04:45:25.465Z,102078.69
2023-04-10T04:48:11.102Z,102068.31
2023-04-10T04:50:56.161Z,102072.66
2023-04-10T04:53:41.298Z,102066.56
2023-04-10T04:56:26.704Z,102064.78
2023-04-10T04:59:12.090Z,102068.16
2023-04-10T05:01:57.648Z,102072.47
2023-04-10T05:04:42.843Z,102068.97
2023-04-10T05:07:28.202Z,102068.09
2023-04-10T05:10:13.807Z,102067.16
2023-04-10T05:12:59.271Z,102067.97
2023-04-10T05:15:44.903Z,102069.69
2023-04-10T05:18:30.548Z,102073.13
2023-04-10T05:21:15.824Z,102083.44
2023-04-10T05:24:01.206Z,102078.97
2023-04-10T05:26:46.624Z,102075.38
2023-04-10T05:29:31.860Z,102083.81
2023-04-10T05:32:17.232Z,102087.22
2023-04-10T05:35:02.647Z,102092.28
2023-04-10T05:37:48.088Z,102089.44
2023-04-10T05:40:33.237Z,102100.50
2023-04-10T05:43:18.646Z,102095.13
2023-04-10T05:46:04.130Z,102085.34
2023-04-10T05:48:49.447Z,102079.94
2023-04-10T05:51:34.545Z,102084.72
2023-04-10T05:54:19.965Z,102084.28
2023-04-10T05:57:05.399Z,102078.53
2023-04-10T05:59:50.871Z,102071.63
2023-04-10T06:02:36.130Z,102072.66
2023-04-10T06:05:21.906Z,102071.94
2023-04-10T06:08:07.427Z,102065.03
2023-04-10T06:10:52.716Z,102068.88
2023-04-10T06:13:37.741Z,102066.78
2023-04-10T06:16:23.130Z,102065.72
2023-04-10T06:19:08.524Z,102058.81
2023-04-10T06:21:54.633Z,102065.06
2023-04-10T06:24:40.049Z,102064.25
2023-04-10T06:27:25.630Z,102055.25
2023-04-10T06:30:11.171Z,102050.19
2023-04-10T06:32:56.457Z,102043.16
2023-04-10T06:35:41.577Z,102035.59
2023-04-10T06:38:27.093Z,102042.41
2023-04-10T06:41:12.323Z,102027.88
2023-04-10T06:43:57.629Z,102033.22
2023-04-10T06:46:43.375Z,102031.56
2023-04-10T06:49:28.447Z,102022.81
2023-04-10T06:52:13.833Z,102015.88
2023-04-10T06:54:59.214Z,102016.94
2023-04-10T06:57:45.576Z,102012.28
2023-04-10T07:00:31.242Z,102015.91
2023-04-10T07:03:16.516Z,102006.75
2023-04-10T07:06:03.191Z,102013.03
2023-04-10T07:08:49.102Z,102002.75
2023-04-10T07:11:34.202Z,102005.66
2023-04-10T07:14:19.603Z,102002.34
2023-04-10T07:17:04.784Z,102004.22
2023-04-10T07:19:50.153Z,102004.28
2023-04-10T07:22:35.216Z,101997.38
2023-04-10T07:25:20.891Z,101997.47
2023-04-10T07:28:06.179Z,101993.63
2023-04-10T07:30:51.688Z,101996.75
2023-04-10T07:33:37.578Z,101990.91
2023-04-10T07:36:22.755Z,101987.06
2023-04-10T07:39:08.207Z,101980.56
2023-04-10T07:41:54.610Z,101977.44
2023-04-10T07:44:39.734Z,101977.13
2023-04-10T07:47:25.321Z,101974.16
2023-04-10T07:50:11.130Z,101977.75
2023-04-10T07:52:56.601Z,101960.53
2023-04-10T07:55:42.905Z,101966.75
2023-04-10T07:58:28.354Z,101970.59
2023-04-10T08:01:14.066Z,101973.25
2023-04-10T08:03:59.117Z,101962.53
2023-04-10T08:06:44.678Z,101965.75
2023-04-10T08:09:30.316Z,101959.63
2023-04-10T08:12:16.096Z,101958.25
2023-04-10T08:15:01.529Z,101947.84
2023-04-10T08:17:47.061Z,101938.16
2023-04-10T08:20:36.784Z,101934.44
2023-04-10T08:23:22.173Z,101939.13
2023-04-10T08:26:07.389Z,101930.16
2023-04-10T08:28:53.664Z,101917.03
2023-04-10T08:31:38.907Z,101921.09
2023-04-10T08:34:24.433Z,101923.69
2023-04-10T08:37:12.101Z,101911.38
2023-04-10T08:39:58.576Z,101923.50
2023-04-10T08:42:43.752Z,101922.44
2023-04-10T08:45:29.152Z,101922.00
2023-04-10T08:48:15.593Z,101906.28
2023-04-10T08:51:01.139Z,101916.78
2023-04-10T08:53:47.869Z,101909.13
2023-04-10T08:56:33.616Z,101907.97
2023-04-10T08:59:19.083Z,101897.25
2023-04-10T09:02:05.550Z,101885.28
2023-04-10T09:04:54.413Z,101889.09
2023-04-10T09:07:40.085Z,101880.69
2023-04-10T09:10:25.503Z,101878.66
2023-04-10T09:13:11.039Z,101885.25
2023-04-10T09:16:00.341Z,101859.75
2023-04-10T09:18:50.607Z,101858.25
2023-04-10T09:21:35.839Z,101854.41
2023-04-10T09:24:21.121Z,101859.28
2023-04-10T09:27:06.891Z,101854.59
2023-04-10T09:29:52.388Z,101841.00
2023-04-10T09:32:41.489Z,101843.69
2023-04-10T09:35:35.313Z,101825.69
2023-04-10T09:38:21.779Z,101844.53
2023-04-10T09:41:08.126Z,101832.31
2023-04-10T09:44:11.857Z,101836.91
2023-04-10T09:46:57.464Z,101810.50
2023-04-10T09:49:49.734Z,101816.75
2023-04-10T09:52:35.224Z,101800.03
2023-04-10T09:55:20.566Z,101807.75
2023-04-10T09:58:06.576Z,101796.97
2023-04-10T10:00:52.075Z,101798.38
2023-04-10T10:03:38.646Z,101784.94
2023-04-10T10:06:24.345Z,101791.09
2023-04-10T10:09:09.424Z,101779.34
2023-04-10T10:11:55.048Z,101763.03
2023-04-10T10:14:47.540Z,101768.97
2023-04-10T10:17:38.895Z,101763.31
2023-04-10T10:20:24.716Z,101755.69
2023-04-10T10:23:10.207Z,101751.56
2023-04-10T10:25:56.068Z,101743.78
2023-04-10T10:28:42.213Z,101743.06
2023-04-10T10:31:32.601Z,101720.63
2023-04-10T10:34:17.961Z,101715.22
2023-04-10T10:37:04.260Z,101716.41
2023-04-10T10:39:59.101Z,101707.94
2023-04-10T10:42:56.129Z,101684.81
2023-04-10T10:45:46.637Z,101679.31
2023-04-10T10:48:31.753Z,101696.53
2023-04-10T10:51:17.222Z,101658.34
2023-04-10T10:54:02.596Z,101673.09
2023-04-10T10:56:47.747Z,101662.09
2023-04-10T10:59:48.006Z,101666.94
2023-04-10T11:02:34.052Z,101667.25
2023-04-10T11:05:38.145Z,101658.38
2023-04-10T11:08:37.194Z,101654.16
2023-04-10T11:11:23.500Z,101635.38
2023-04-10T11:14:08.890Z,101622.78
2023-04-10T11:16:54.204Z,101619.13
2023-04-10T11:19:59.281Z,101613.03
2023-04-10T11:23:03.292Z,101607.78
2023-04-10T11:25:49.565Z,101607.59
2023-04-10T11:28:38.726Z,101598.34
2023-04-10T11:31:24.214Z,101580.31
2023-04-10T11:34:10.534Z,101577.09
2023-04-10T11:36:56.216Z,101596.16
2023-04-10T11:39:41.756Z,101577.28
2023-04-10T11:42:27.062Z,101588.66
2023-04-10T11:45:25.776Z,101575.84
2023-04-10T11:48:10.832Z,101570.88
2023-04-10T11:50:56.427Z,101581.13
2023-04-10T11:53:41.875Z,101563.03
2023-04-10T11:56:27.185Z,101556.75
2023-04-10T11:59:15.180Z,101567.25
2023-04-10T12:02:07.871Z,101552.13
2023-04-10T12:04:59.047Z,101530.66
2023-04-10T12:07:44.138Z,101535.81
2023-04-10T12:10:44.606Z,101552.41
2023-04-10T12:13:30.568Z,101539.19
2023-04-10T12:16:16.507Z,101515.84
2023-04-10T12:19:02.154Z,101526.94
2023-04-10T12:21:47.521Z,101507.81
2023-04-10T12:24:45.099Z,101550.88
2023-04-10T12:27:30.674Z,101501.81
2023-04-10T12:30:16.536Z,101509.22
2023-04-10T12:33:07.436Z,101490.81
2023-04-10T12:35:54.135Z,101503.59
2023-04-10T12:38:42.965Z,101487.66
2023-04-10T12:41:29.620Z,101481.44
2023-04-10T12:44:14.888Z,101481.31
2023-04-10T12:47:01.366Z,101480.47
2023-04-10T12:50:12.667Z,101470.94
2023-04-10T12:53:08.028Z,101462.72
2023-04-10T12:56:12.167Z,101464.56
2023-04-10T12:59:07.412Z,101471.75
2023-04-10T13:01:52.948Z,101444.22
2023-04-10T13:04:38.473Z,101444.81
2023-04-10T13:07:23.784Z,101439.16
2023-04-10T13:10:09.340Z,101442.91
2023-04-10T13:12:54.768Z,101439.28
2023-04-10T13:15:40.802Z,101440.03
2023-04-10T13:18:25.981Z,101418.34
2023-04-10T13:21:11.508Z,101414.53
2023-04-10T13:23:57.138Z,101418.75
2023-04-10T13:26:42.277Z,101411.72
2023-04-10T13:29:28.887Z,101392.09
2023-04-10T13:32:14.471Z,101386.53
2023-04-10T13:34:59.834Z,101385.91
2023-04-10T13:37:45.992Z,101379.50
2023-04-10T13:40:31.282Z,101363.00
2023-04-10T13:43:16.752Z,101362.03
2023-04-10T13:46:02.097Z,101362.94
2023-04-10T13:48:47.186Z,101355.75
2023-04-10T13:51:32.709Z,101348.16
2023-04-10T13:54:18.190Z,101338.91
2023-04-10T13:57:03.527Z,101337.78
2023-04-10T13:59:48.879Z,101334.56
2023-04-10T14:02:34.157Z,101346.53
2023-04-10T14:05:19.328Z,101331.47
2023-04-10T14:08:05.268Z,101338.66
2023-04-10T14:10:51.339Z,101326.84
